Decoded Metar for KMOB (MOBILE in AL, USA) (IATA:MOB) | Meteo·Mobile Aviation Weather
aviador You're here:

KMOB Decoded Metar

MOBILE in AL, USA
Report Time2019-03-23 19:56:00
UTC Time2019-03-23 20:55:23
Flight Rules vfr VFR
WindVRB at 04 kt
Visibility9999 m
Phenomena:N/A
Clouds:Few 030 Hf
Scattered 250 Hf
Expected CloudBase > 8,400 ft AGL from Temp-Dew spread
CeilingNone
Temp24°C (ISA +9)
Dew Point03°C (25% RH)
AAT21.0°C
QNH1022 hPa
Density Alt1,106 ft
Elevation207 ft
Report Wrong Elevation
Raw Report
METAR KMOB 231956Z VRB04KT 10SM FEW030 SCT250 24/03 A3019 RMK AO2 SLP222
T02390033=

Extra information for KMOB:More info

Metar Taf Metar & Taf Last 4 Metars F.Rules Stats Wind Profile Meteogram Temp Stats Airport Information Weather charts Add Link Nearby VenuesMetar ALERT Operation Metar Decoded Social comments

AIRNAV info for KMOB